createdAt,value
2022-08-14T00:02:31.387Z,25.45
2022-08-14T00:07:22.717Z,25.41
2022-08-14T00:12:23.989Z,25.41
2022-08-14T00:17:07.949Z,25.33
2022-08-14T00:22:00.506Z,25.35
2022-08-14T00:26:54.763Z,25.4
2022-08-14T00:31:45.960Z,25.38
2022-08-14T00:36:39.532Z,25.33
2022-08-14T00:41:30.882Z,25.36
2022-08-14T00:46:32.461Z,25.29
2022-08-14T00:51:16.079Z,25.31
2022-08-14T00:56:08.750Z,25.27
2022-08-14T01:01:01.380Z,25.26
2022-08-14T01:05:53.665Z,25.25
2022-08-14T01:10:46.233Z,25.26
2022-08-14T01:15:58.183Z,25.26
2022-08-14T01:20:31.590Z,25.25
2022-08-14T01:25:24.249Z,25.22
2022-08-14T01:30:16.902Z,25.24
2022-08-14T01:35:16.711Z,25.21
2022-08-14T01:40:01.672Z,25.19
2022-08-14T01:44:54.468Z,25.16
2022-08-14T01:49:59.216Z,25.19
2022-08-14T01:54:39.609Z,25.12
2022-08-14T01:59:37.754Z,25.11
2022-08-14T02:04:41.057Z,25.07
2022-08-14T02:09:19.228Z,25.06
2022-08-14T02:14:10.213Z,25.06
2022-08-14T02:19:02.772Z,25.1
2022-08-14T02:23:55.571Z,25.09
2022-08-14T02:28:56.596Z,25.07
2022-08-14T02:33:41.089Z,25.08
2022-08-14T02:38:34.233Z,25.04
2022-08-14T02:43:36.888Z,25.04
2022-08-14T02:49:02.173Z,24.98
2022-08-14T02:53:11.279Z,24.94
2022-08-14T02:58:03.859Z,24.95
2022-08-14T03:02:59.270Z,24.93
2022-08-14T03:07:48.998Z,24.97
2022-08-14T03:12:41.707Z,24.92
2022-08-14T03:17:40.889Z,24.9
2022-08-14T03:22:27.701Z,24.87
2022-08-14T03:27:19.469Z,24.86
2022-08-14T03:32:11.984Z,24.87
2022-08-14T03:41:59.885Z,24.84
2022-08-14T03:46:53.149Z,24.85
2022-08-14T03:51:42.416Z,24.83
2022-08-14T03:56:34.901Z,24.82
2022-08-14T04:01:29.128Z,24.74
2022-08-14T04:06:20.888Z,24.73
2022-08-14T04:11:12.741Z,24.74
2022-08-14T04:16:06.958Z,24.77
2022-08-14T04:20:58.132Z,24.74
2022-08-14T04:25:50.797Z,24.7
2022-08-14T04:30:43.473Z,24.72
2022-08-14T04:35:37.441Z,24.72
2022-08-14T04:40:28.333Z,24.27
2022-08-14T04:45:20.706Z,24.05
2022-08-14T04:50:15.125Z,23.95
2022-08-14T04:55:07.333Z,23.78
2022-08-14T04:59:59.946Z,23.44
2022-08-14T05:04:57.492Z,23.18
2022-08-14T05:09:47.840Z,23.5
2022-08-14T05:14:47.089Z,23.48
2022-08-14T05:19:32.152Z,23.25
2022-08-14T05:24:22.824Z,23.36
2022-08-14T05:29:14.886Z,23.09
2022-08-14T05:34:07.285Z,23.2
2022-08-14T05:38:59.539Z,23.15
2022-08-14T05:43:52.397Z,23.27
2022-08-14T05:48:45.489Z,23.36
2022-08-14T05:53:37.510Z,23.26
2022-08-14T05:58:33.749Z,23.25
2022-08-14T06:03:23.078Z,23.36
2022-08-14T06:08:21.878Z,22.7
2022-08-14T06:13:06.575Z,22.16
2022-08-14T06:17:59.765Z,21.8
2022-08-14T06:22:51.223Z,22.71
2022-08-14T06:27:43.810Z,22.24
2022-08-14T06:32:39.254Z,22.82
2022-08-14T06:37:29.155Z,22.97
2022-08-14T06:42:22.340Z,22.8
2022-08-14T06:47:13.367Z,22.39
2022-08-14T06:52:06.648Z,22.56
2022-08-14T06:57:01.242Z,22.83
2022-08-14T07:01:56.685Z,23.14
2022-08-14T07:06:46.929Z,23.21
2022-08-14T07:11:38.360Z,23.15
2022-08-14T07:16:31.364Z,23.51
2022-08-14T07:21:24.195Z,23.75
2022-08-14T07:26:16.634Z,23.65
2022-08-14T07:31:09.331Z,23.85
2022-08-14T07:36:01.843Z,23.92
2022-08-14T07:40:54.536Z,24.12
2022-08-14T07:45:47.036Z,24.22
2022-08-14T07:50:39.499Z,24.28
2022-08-14T07:55:32.224Z,24.38
2022-08-14T08:00:30.133Z,24.46
2022-08-14T08:05:17.611Z,24.5
2022-08-14T08:10:10.447Z,24.55
2022-08-14T08:15:07.074Z,24.55
2022-08-14T08:19:55.663Z,24.6
2022-08-14T08:24:50.401Z,24.64
2022-08-14T08:29:40.983Z,24.68
2022-08-14T08:34:33.359Z,24.7
2022-08-14T08:39:26.302Z,24.74
2022-08-14T08:44:31.463Z,24.76
2022-08-14T08:49:11.509Z,24.79
2022-08-14T08:54:04.048Z,24.83
2022-08-14T08:58:56.821Z,24.85
2022-08-14T09:03:49.411Z,24.88
2022-08-14T09:08:41.963Z,24.9
2022-08-14T09:13:34.554Z,24.91
2022-08-14T09:18:26.892Z,24.93
2022-08-14T09:23:19.462Z,24.98
2022-08-14T09:28:12.091Z,25.03
2022-08-14T09:33:10.746Z,25.06
2022-08-14T09:37:57.435Z,25.09
2022-08-14T09:42:51.239Z,25.12
2022-08-14T09:47:42.855Z,25.14
2022-08-14T09:52:35.661Z,25.17
2022-08-14T09:57:28.903Z,25.21
2022-08-14T10:02:20.791Z,25.24
2022-08-14T10:07:13.335Z,25.3
2022-08-14T10:12:05.951Z,25.34
2022-08-14T10:16:58.653Z,25.37
2022-08-14T10:21:58.914Z,25.42
2022-08-14T10:26:43.631Z,25.45
2022-08-14T10:31:40.414Z,25.48
2022-08-14T10:36:33.664Z,25.53
2022-08-14T10:41:22.220Z,25.57
2022-08-14T10:46:22.217Z,25.6
2022-08-14T10:51:08.409Z,25.62
2022-08-14T10:55:59.944Z,25.65
2022-08-14T11:00:52.645Z,25.7
2022-08-14T11:05:45.399Z,25.73
2022-08-14T11:15:32.478Z,25.79
2022-08-14T11:25:16.008Z,25.86
2022-08-14T11:30:49.714Z,25.88
2022-08-14T11:35:01.460Z,25.91
2022-08-14T11:39:54.225Z,25.95
2022-08-14T11:44:47.054Z,25.99
2022-08-14T11:49:39.587Z,26.03
2022-08-14T11:54:33.824Z,26.05
2022-08-14T11:59:26.331Z,26.04
2022-08-14T12:04:21.460Z,26.08
2022-08-14T12:09:13.764Z,26.1
2022-08-14T12:14:02.928Z,26.11
2022-08-14T12:18:55.389Z,26.14
2022-08-14T12:23:47.938Z,26.17
2022-08-14T12:28:59.602Z,26.2
2022-08-14T12:33:34.172Z,26.2
2022-08-14T12:38:25.849Z,26.25
2022-08-14T12:43:18.455Z,26.27
2022-08-14T12:48:20.817Z,26.32
2022-08-14T12:53:14.136Z,26.31
2022-08-14T12:57:56.005Z,26.32
2022-08-14T13:02:48.938Z,26.36
2022-08-14T13:07:43.541Z,26.45
2022-08-14T13:12:43.031Z,26.42
2022-08-14T13:17:28.800Z,26.49
2022-08-14T13:22:29.376Z,26.48
2022-08-14T13:27:14.121Z,26.49
2022-08-14T13:32:06.766Z,26.51
2022-08-14T13:37:03.547Z,26.53
2022-08-14T13:41:55.893Z,26.55
2022-08-14T13:46:44.675Z,26.56
2022-08-14T13:51:37.504Z,26.59
2022-08-14T13:56:35.953Z,26.58
2022-08-14T14:01:23.080Z,26.61
2022-08-14T14:06:15.387Z,26.6
2022-08-14T14:11:08.094Z,26.62
2022-08-14T14:16:00.673Z,26.63
2022-08-14T14:20:53.412Z,26.66
2022-08-14T14:25:46.002Z,26.67
2022-08-14T14:30:46.686Z,26.69
2022-08-14T14:35:32.911Z,26.73
2022-08-14T14:40:51.204Z,26.73
2022-08-14T14:45:16.026Z,26.75
2022-08-14T14:50:08.799Z,26.75
2022-08-14T14:55:01.246Z,26.77
2022-08-14T14:59:53.813Z,26.8
2022-08-14T15:04:46.172Z,26.79
2022-08-14T15:09:38.780Z,26.79
2022-08-14T15:14:54.286Z,26.78
2022-08-14T15:19:23.673Z,26.81
2022-08-14T15:24:20.814Z,26.8
2022-08-14T15:29:08.704Z,26.82
2022-08-14T15:34:33.643Z,26.84
2022-08-14T15:38:54.305Z,26.85
2022-08-14T15:43:47.123Z,26.88
2022-08-14T15:48:43.885Z,26.9
2022-08-14T15:53:32.426Z,26.91
2022-08-14T15:58:25.085Z,26.91
2022-08-14T16:03:17.731Z,26.91
2022-08-14T16:08:24.251Z,26.91
2022-08-14T16:13:03.190Z,26.93
2022-08-14T16:17:55.624Z,26.96
2022-08-14T16:22:57.739Z,27
2022-08-14T16:27:41.149Z,27.05
2022-08-14T16:32:36.139Z,27.05
2022-08-14T16:42:39.687Z,27.11
2022-08-14T16:47:11.264Z,27.17
2022-08-14T16:52:07.263Z,27.16
2022-08-14T16:56:56.710Z,27.18
2022-08-14T17:01:49.347Z,27.19
2022-08-14T17:06:42.867Z,27.19
2022-08-14T17:11:37.349Z,27.2
2022-08-14T17:16:27.809Z,27.21
2022-08-14T17:21:23.910Z,27.21
2022-08-14T17:26:12.974Z,27.22
2022-08-14T17:31:05.485Z,27.2
2022-08-14T17:35:59.233Z,27.21
2022-08-14T17:40:50.695Z,27.21
2022-08-14T17:45:43.337Z,27.2
2022-08-14T17:50:55.021Z,27.18
2022-08-14T17:56:00.628Z,27.17
2022-08-14T18:00:20.809Z,27.17
2022-08-14T18:05:13.472Z,27.15
2022-08-14T18:10:31.842Z,27.15
2022-08-14T18:15:00.270Z,27.14
2022-08-14T18:19:51.212Z,27.12
2022-08-14T18:24:44.554Z,27.11
2022-08-14T18:29:36.663Z,27.13
2022-08-14T18:34:31.404Z,27.09
2022-08-14T18:39:22.756Z,27.11
2022-08-14T18:44:14.609Z,27.1
2022-08-14T18:49:07.336Z,27.11
2022-08-14T18:53:59.762Z,27.1
2022-08-14T18:58:56.943Z,27.11
2022-08-14T19:03:44.998Z,27.12
2022-08-14T19:08:37.475Z,27.11
2022-08-14T19:13:44.404Z,27.07
2022-08-14T19:18:26.122Z,27.06
2022-08-14T19:23:15.139Z,27.06
2022-08-14T19:28:07.771Z,27.02
2022-08-14T19:33:05.391Z,27
2022-08-14T19:37:53.944Z,27.01
2022-08-14T19:42:46.581Z,27.02
2022-08-14T19:47:41.286Z,27.03
2022-08-14T19:52:35.499Z,26.99
2022-08-14T19:57:23.431Z,26.99
2022-08-14T20:02:20.840Z,26.97
2022-08-14T20:07:09.040Z,26.98
2022-08-14T20:12:03.215Z,26.95
2022-08-14T20:16:53.128Z,26.96
2022-08-14T20:21:58.068Z,26.92
2022-08-14T20:26:38.444Z,26.9
2022-08-14T20:31:36.808Z,26.85
2022-08-14T20:36:26.115Z,26.84
2022-08-14T20:41:16.282Z,26.84
2022-08-14T20:46:08.918Z,26.82
2022-08-14T20:51:01.317Z,26.74
2022-08-14T20:55:54.095Z,26.73
2022-08-14T21:00:51.654Z,26.73
2022-08-14T21:05:39.637Z,26.75
2022-08-14T21:10:32.898Z,26.69
2022-08-14T21:15:24.687Z,26.72
2022-08-14T21:20:21.530Z,26.71
2022-08-14T21:25:10.987Z,26.62
2022-08-14T21:30:02.623Z,26.64
2022-08-14T21:34:55.628Z,26.6
2022-08-14T21:39:47.753Z,26.55
2022-08-14T21:44:42.564Z,26.54
2022-08-14T21:49:33.946Z,26.53
2022-08-14T21:54:30.129Z,26.57
2022-08-14T21:59:18.405Z,26.49
2022-08-14T22:04:31.991Z,26.48
2022-08-14T22:09:03.724Z,26.51
2022-08-14T22:18:49.316Z,26.5
2022-08-14T22:28:34.609Z,26.46
2022-08-14T22:33:30.750Z,26.39
2022-08-14T22:38:35.155Z,26.41
2022-08-14T22:43:12.425Z,26.44
2022-08-14T22:48:05.173Z,26.42
2022-08-14T22:52:57.484Z,26.43
2022-08-14T22:57:50.321Z,26.37
2022-08-14T23:02:42.591Z,26.33
2022-08-14T23:08:57.411Z,26.31
2022-08-14T23:12:28.090Z,26.33
2022-08-14T23:17:19.975Z,26.32
2022-08-14T23:22:16.733Z,26.33
2022-08-14T23:27:09.203Z,26.22
2022-08-14T23:31:57.617Z,26.26
2022-08-14T23:36:53.827Z,26.23
2022-08-14T23:41:46.078Z,26.24
2022-08-14T23:46:35.398Z,26.28
2022-08-14T23:51:27.954Z,26.24
2022-08-14T23:56:30.559Z,26.22
